createdAt,value
2017-12-20T00:00:18.374Z,1.60
2017-12-20T00:02:47.919Z,1.60
2017-12-20T00:05:17.626Z,1.60
2017-12-20T00:07:46.381Z,1.60
2017-12-20T00:10:16.027Z,1.50
2017-12-20T00:12:44.829Z,1.50
2017-12-20T00:15:13.518Z,1.50
2017-12-20T00:17:42.091Z,1.60
2017-12-20T00:20:11.026Z,1.60
2017-12-20T00:22:39.998Z,1.50
2017-12-20T00:25:08.884Z,1.50
2017-12-20T00:27:37.641Z,1.50
2017-12-20T00:30:07.237Z,1.50
2017-12-20T00:32:36.873Z,1.40
2017-12-20T00:35:05.257Z,1.50
2017-12-20T00:37:33.465Z,1.50
2017-12-20T00:40:02.285Z,1.50
2017-12-20T00:42:30.577Z,1.50
2017-12-20T00:44:58.892Z,1.60
2017-12-20T00:47:27.175Z,1.60
2017-12-20T00:49:55.455Z,1.60
2017-12-20T00:52:23.733Z,1.60
2017-12-20T00:54:52.013Z,1.50
2017-12-20T00:57:20.372Z,1.50
2017-12-20T00:59:49.590Z,1.50
2017-12-20T01:02:18.888Z,1.50
2017-12-20T01:04:48.559Z,1.50
2017-12-20T01:07:17.478Z,1.50
2017-12-20T01:09:46.127Z,1.50
2017-12-20T01:12:15.511Z,1.50
2017-12-20T01:14:45.171Z,1.40
2017-12-20T01:17:14.116Z,1.40
2017-12-20T01:19:43.058Z,1.50
2017-12-20T01:22:12.278Z,1.50
2017-12-20T01:24:42.099Z,1.50
2017-12-20T01:27:11.263Z,1.40
2017-12-20T01:29:40.526Z,1.50
2017-12-20T01:32:09.497Z,1.50
2017-12-20T01:34:39.402Z,1.50
2017-12-20T01:37:08.334Z,1.50
2017-12-20T01:39:37.742Z,1.50
2017-12-20T01:42:09.475Z,1.60
2017-12-20T01:44:40.422Z,1.60
2017-12-20T01:47:10.501Z,1.60
2017-12-20T01:49:40.850Z,1.60
2017-12-20T01:52:10.276Z,1.60
2017-12-20T01:54:39.925Z,1.60
2017-12-20T01:57:10.210Z,1.60
2017-12-20T01:59:39.217Z,1.60
2017-12-20T02:02:08.244Z,1.60
2017-12-20T02:04:37.871Z,1.60
2017-12-20T02:07:08.005Z,1.50
2017-12-20T02:09:37.427Z,1.50
2017-12-20T02:12:08.028Z,1.60
2017-12-20T02:14:38.147Z,1.60
2017-12-20T02:17:08.964Z,1.60
2017-12-20T02:19:38.334Z,1.70
2017-12-20T02:22:07.485Z,1.70
2017-12-20T02:24:37.470Z,1.60
2017-12-20T02:27:07.903Z,1.60
2017-12-20T02:29:38.173Z,1.60
2017-12-20T02:32:07.986Z,1.60
2017-12-20T02:34:38.100Z,1.60
2017-12-20T02:37:07.281Z,1.60
2017-12-20T02:39:36.941Z,1.70
2017-12-20T02:42:08.044Z,1.70
2017-12-20T02:44:36.961Z,1.70
2017-12-20T02:47:06.178Z,1.70
2017-12-20T02:49:35.574Z,1.70
2017-12-20T02:52:04.910Z,1.60
2017-12-20T02:54:34.582Z,1.60
2017-12-20T02:57:04.981Z,1.70
2017-12-20T02:59:35.293Z,1.70
2017-12-20T03:02:05.102Z,1.70
2017-12-20T03:04:34.931Z,1.80
2017-12-20T03:07:04.898Z,1.80
2017-12-20T03:09:34.624Z,1.80
2017-12-20T03:12:03.988Z,1.80
2017-12-20T03:14:34.106Z,1.70
2017-12-20T03:17:04.249Z,1.70
2017-12-20T03:19:33.742Z,1.70
2017-12-20T03:22:03.007Z,1.60
2017-12-20T03:24:31.818Z,1.70
2017-12-20T03:27:01.815Z,1.70
2017-12-20T03:29:31.571Z,1.70
2017-12-20T03:32:02.157Z,1.70
2017-12-20T03:34:31.114Z,1.80
2017-12-20T03:37:00.851Z,1.70
2017-12-20T03:39:31.380Z,1.80
2017-12-20T03:42:00.672Z,1.80
2017-12-20T03:44:29.829Z,1.80
2017-12-20T03:46:59.735Z,1.60
2017-12-20T03:49:29.246Z,1.60
2017-12-20T03:51:57.770Z,1.60
2017-12-20T03:54:27.184Z,1.70
2017-12-20T03:56:56.403Z,1.70
2017-12-20T03:59:24.735Z,1.70
2017-12-20T04:01:53.021Z,1.70
2017-12-20T04:04:21.303Z,1.60
2017-12-20T04:06:49.597Z,1.60
2017-12-20T04:09:17.874Z,1.50
2017-12-20T04:11:46.163Z,1.50
2017-12-20T04:14:14.880Z,1.50
2017-12-20T04:16:43.596Z,1.60
2017-12-20T04:19:12.691Z,1.60
2017-12-20T04:21:41.045Z,1.70
2017-12-20T04:24:10.251Z,1.70
2017-12-20T04:26:40.550Z,1.70
2017-12-20T04:29:09.909Z,1.70
2017-12-20T04:31:38.916Z,1.70
2017-12-20T04:34:07.903Z,1.70
2017-12-20T04:36:37.008Z,1.70
2017-12-20T04:39:06.627Z,1.70
2017-12-20T04:41:36.394Z,1.70
2017-12-20T04:44:05.808Z,1.70
2017-12-20T04:46:34.914Z,1.80
2017-12-20T04:49:04.090Z,1.80
2017-12-20T04:51:33.353Z,1.80
2017-12-20T04:54:02.886Z,1.80
2017-12-20T04:56:33.611Z,1.80
2017-12-20T04:59:03.568Z,1.80
2017-12-20T05:01:34.115Z,1.70
2017-12-20T05:04:04.349Z,1.70
2017-12-20T05:06:33.540Z,1.70
2017-12-20T05:09:02.294Z,1.70
2017-12-20T05:11:30.744Z,1.70
2017-12-20T05:13:59.308Z,1.70
2017-12-20T05:16:27.578Z,1.80
2017-12-20T05:18:56.920Z,1.70
2017-12-20T05:21:25.207Z,1.70
2017-12-20T05:23:53.487Z,1.70
2017-12-20T05:26:21.797Z,1.70
2017-12-20T05:28:50.067Z,1.80
2017-12-20T05:31:18.374Z,1.80
2017-12-20T05:33:46.649Z,1.70
2017-12-20T05:36:15.201Z,1.70
2017-12-20T05:38:43.970Z,1.70
2017-12-20T05:41:13.166Z,1.80
2017-12-20T05:43:41.549Z,1.80
2017-12-20T05:46:10.318Z,1.90
2017-12-20T05:48:39.284Z,1.90
2017-12-20T05:51:08.466Z,1.90
2017-12-20T05:53:37.462Z,1.90
2017-12-20T05:56:06.264Z,1.80
2017-12-20T05:58:35.433Z,1.80
2017-12-20T06:01:05.627Z,1.80
2017-12-20T06:03:34.832Z,1.80
2017-12-20T06:06:03.686Z,1.90
2017-12-20T06:08:32.650Z,1.90
2017-12-20T06:11:01.968Z,1.90
2017-12-20T06:13:32.030Z,2.00
2017-12-20T06:16:01.041Z,2.00
2017-12-20T06:18:31.036Z,2.00
2017-12-20T06:21:01.139Z,2.00
2017-12-20T06:23:30.752Z,2.00
2017-12-20T06:25:59.643Z,2.00
2017-12-20T06:28:28.181Z,2.00
2017-12-20T06:30:57.474Z,2.10
2017-12-20T06:33:25.982Z,2.00
2017-12-20T06:35:54.269Z,2.10
2017-12-20T06:38:22.738Z,2.10
2017-12-20T06:40:51.268Z,2.10
2017-12-20T06:43:19.505Z,2.10
2017-12-20T06:45:47.807Z,2.00
2017-12-20T06:48:16.314Z,2.00
2017-12-20T06:50:45.478Z,2.00
2017-12-20T06:53:14.051Z,1.80
2017-12-20T06:55:43.735Z,1.80
2017-12-20T06:58:12.239Z,1.80
2017-12-20T07:00:41.026Z,1.80
2017-12-20T07:03:10.834Z,1.70
2017-12-20T07:05:39.875Z,1.70
2017-12-20T07:08:08.643Z,1.80
2017-12-20T07:10:38.072Z,1.70
2017-12-20T07:13:07.198Z,1.70
2017-12-20T07:15:37.524Z,1.80
2017-12-20T07:18:06.403Z,1.70
2017-12-20T07:20:36.833Z,1.80
2017-12-20T07:23:05.996Z,1.80
2017-12-20T07:25:34.917Z,1.80
2017-12-20T07:28:04.013Z,1.80
2017-12-20T07:30:34.792Z,1.80
2017-12-20T07:33:05.647Z,1.80
2017-12-20T07:35:36.094Z,1.80
2017-12-20T07:38:05.859Z,1.80
2017-12-20T07:40:35.301Z,1.80
2017-12-20T07:43:04.924Z,1.90
2017-12-20T07:45:34.692Z,1.90
2017-12-20T07:48:04.606Z,1.90
2017-12-20T07:50:35.213Z,1.90
2017-12-20T07:53:05.032Z,1.90
2017-12-20T07:55:35.123Z,2.00
2017-12-20T07:58:05.135Z,2.00
2017-12-20T08:00:35.830Z,1.90
2017-12-20T08:03:06.234Z,1.90
2017-12-20T08:05:36.307Z,1.90
2017-12-20T08:08:06.345Z,1.90
2017-12-20T08:10:36.908Z,1.90
2017-12-20T08:13:06.010Z,1.90
2017-12-20T08:15:34.892Z,1.80
2017-12-20T08:18:04.423Z,1.80
2017-12-20T08:20:35.147Z,1.90
2017-12-20T08:23:05.066Z,1.90
2017-12-20T08:25:34.346Z,1.90
2017-12-20T08:28:04.256Z,2.00
2017-12-20T08:30:34.596Z,2.00
2017-12-20T08:33:04.142Z,2.00
2017-12-20T08:35:33.416Z,2.00
2017-12-20T08:38:02.732Z,2.00
2017-12-20T08:40:32.993Z,2.00
2017-12-20T08:43:03.742Z,2.10
2017-12-20T08:45:33.965Z,2.30
2017-12-20T08:48:04.127Z,2.30
2017-12-20T08:50:34.999Z,2.60
2017-12-20T08:53:04.492Z,2.80
2017-12-20T08:55:34.328Z,2.90
2017-12-20T08:58:04.200Z,3.00
2017-12-20T09:00:34.033Z,3.10
2017-12-20T09:03:04.284Z,3.10
2017-12-20T09:05:34.489Z,3.10
2017-12-20T09:08:03.335Z,3.00
2017-12-20T09:10:31.792Z,3.10
2017-12-20T09:13:00.400Z,3.10
2017-12-20T09:15:28.842Z,3.20
2017-12-20T09:17:57.988Z,3.50
2017-12-20T09:20:26.394Z,3.50
2017-12-20T09:22:54.707Z,3.60
2017-12-20T09:25:22.993Z,3.60
2017-12-20T09:27:51.358Z,3.60
2017-12-20T09:30:19.781Z,3.60
2017-12-20T09:32:49.228Z,3.60
2017-12-20T09:35:17.539Z,3.60
2017-12-20T09:37:45.831Z,3.70
2017-12-20T09:40:14.099Z,3.80
2017-12-20T09:42:43.251Z,3.90
2017-12-20T09:45:12.458Z,4.10
2017-12-20T09:47:41.532Z,4.00
2017-12-20T09:50:10.288Z,4.20
2017-12-20T09:52:39.076Z,4.30
2017-12-20T09:55:08.982Z,4.40
2017-12-20T09:57:38.100Z,4.40
2017-12-20T10:00:07.126Z,4.60
2017-12-20T10:02:36.146Z,4.40
2017-12-20T10:05:05.521Z,4.50
2017-12-20T10:07:35.180Z,4.50
2017-12-20T10:10:04.503Z,4.50
2017-12-20T10:12:34.973Z,4.70
2017-12-20T10:15:04.514Z,4.70
2017-12-20T10:17:34.103Z,4.70
2017-12-20T10:20:03.509Z,4.80
2017-12-20T10:22:32.996Z,4.90
2017-12-20T10:25:01.514Z,4.80
2017-12-20T10:27:30.033Z,5.00
2017-12-20T10:29:58.433Z,5.20
2017-12-20T10:32:27.022Z,5.40
2017-12-20T10:34:56.446Z,5.70
2017-12-20T10:37:25.077Z,5.90
2017-12-20T10:39:53.538Z,6.10
2017-12-20T10:42:21.848Z,6.30
2017-12-20T10:44:50.134Z,6.40
2017-12-20T10:47:18.412Z,6.60
2017-12-20T10:49:46.703Z,6.70
2017-12-20T10:52:15.101Z,6.90
2017-12-20T10:54:43.382Z,6.40
2017-12-20T10:57:12.338Z,6.30
2017-12-20T10:59:40.728Z,6.40
2017-12-20T11:02:09.856Z,6.30
2017-12-20T11:04:38.847Z,6.10
2017-12-20T11:07:07.609Z,5.90
2017-12-20T11:09:37.363Z,5.80
2017-12-20T11:12:06.625Z,5.80
2017-12-20T11:14:35.378Z,5.80
2017-12-20T11:17:05.288Z,6.00
2017-12-20T11:19:34.400Z,6.00
2017-12-20T11:22:04.298Z,6.00
2017-12-20T11:24:33.309Z,6.10
2017-12-20T11:27:02.909Z,6.20
2017-12-20T11:29:32.755Z,6.30
2017-12-20T11:32:02.154Z,6.10
2017-12-20T11:34:32.047Z,6.10
2017-12-20T11:37:01.251Z,6.10
2017-12-20T11:39:30.855Z,6.10
2017-12-20T11:42:00.378Z,6.20
2017-12-20T11:44:29.740Z,6.10
2017-12-20T11:46:59.381Z,6.20
2017-12-20T11:49:28.133Z,6.20
2017-12-20T11:51:56.554Z,6.00
2017-12-20T11:54:24.842Z,5.80
2017-12-20T11:56:53.132Z,5.40
2017-12-20T11:59:22.279Z,5.00
2017-12-20T12:01:50.559Z,5.00
2017-12-20T12:04:18.847Z,4.90
2017-12-20T12:06:47.159Z,4.80
2017-12-20T12:09:15.430Z,4.90
2017-12-20T12:11:44.413Z,5.00
2017-12-20T12:14:13.514Z,5.30
2017-12-20T12:16:42.902Z,5.30
2017-12-20T12:19:12.672Z,5.20
2017-12-20T12:21:41.587Z,5.20
2017-12-20T12:24:10.850Z,5.20
2017-12-20T12:26:40.786Z,5.30
2017-12-20T12:29:09.498Z,5.30
2017-12-20T12:31:38.370Z,5.40
2017-12-20T12:34:07.136Z,5.30
2017-12-20T12:36:36.243Z,5.40
2017-12-20T12:39:05.547Z,5.20
2017-12-20T12:41:35.685Z,4.90
2017-12-20T12:44:05.142Z,4.90
2017-12-20T12:46:34.824Z,4.90
2017-12-20T12:49:04.563Z,4.80
2017-12-20T12:54:08.065Z,4.70
2017-12-20T12:56:37.469Z,4.60
2017-12-20T12:59:06.064Z,4.60
2017-12-20T13:01:34.972Z,4.50
2017-12-20T13:04:04.945Z,4.40
2017-12-20T13:06:35.230Z,4.40
2017-12-20T13:09:05.356Z,4.40
2017-12-20T13:11:35.060Z,4.30
2017-12-20T13:14:04.702Z,4.30
2017-12-20T13:16:35.387Z,4.20
2017-12-20T13:19:05.666Z,4.20
2017-12-20T13:21:35.372Z,4.20
2017-12-20T13:24:05.236Z,4.10
2017-12-20T13:26:34.669Z,4.10
2017-12-20T13:29:04.132Z,4.10
2017-12-20T13:31:34.169Z,4.10
2017-12-20T13:34:03.923Z,4.00
2017-12-20T13:36:34.578Z,3.90
2017-12-20T13:39:04.721Z,4.00
2017-12-20T13:41:34.867Z,4.00
2017-12-20T13:44:04.879Z,3.90
2017-12-20T13:46:34.735Z,3.90
2017-12-20T13:49:04.124Z,3.90
2017-12-20T13:51:33.149Z,3.80
2017-12-20T13:54:02.608Z,3.80
2017-12-20T13:56:32.168Z,3.70
2017-12-20T13:59:02.219Z,3.80
2017-12-20T14:01:31.690Z,3.80
2017-12-20T14:04:02.542Z,3.70
2017-12-20T14:06:31.860Z,3.70
2017-12-20T14:09:01.873Z,3.70
2017-12-20T14:11:31.790Z,3.70
2017-12-20T14:14:01.770Z,3.70
2017-12-20T14:16:31.901Z,3.60
2017-12-20T14:19:02.794Z,3.60
2017-12-20T14:21:33.044Z,3.60
2017-12-20T14:24:02.660Z,3.60
2017-12-20T14:26:32.058Z,3.60
2017-12-20T14:29:01.313Z,3.70
2017-12-20T14:31:30.222Z,3.70
2017-12-20T14:33:59.243Z,3.50
2017-12-20T14:36:27.685Z,3.50
2017-12-20T14:38:57.659Z,3.50
2017-12-20T14:41:26.818Z,3.60
2017-12-20T14:43:55.472Z,3.60
2017-12-20T14:46:23.954Z,3.60
2017-12-20T14:48:52.222Z,3.60
2017-12-20T14:51:20.505Z,3.50
2017-12-20T14:53:48.819Z,3.50
2017-12-20T14:56:17.153Z,3.50
2017-12-20T14:58:45.522Z,3.60
2017-12-20T15:01:15.073Z,3.50
2017-12-20T15:03:44.075Z,3.50
2017-12-20T15:06:12.388Z,3.50
2017-12-20T15:08:41.343Z,3.40
2017-12-20T15:11:10.305Z,3.40
2017-12-20T15:13:39.317Z,3.40
2017-12-20T15:16:08.942Z,3.30
2017-12-20T15:18:38.141Z,3.30
2017-12-20T15:21:07.550Z,3.30
2017-12-20T15:23:37.013Z,3.20
2017-12-20T15:26:06.671Z,3.20
2017-12-20T15:28:35.789Z,3.20
2017-12-20T15:31:06.564Z,3.20
2017-12-20T15:33:35.818Z,3.20
2017-12-20T15:36:06.052Z,3.20
2017-12-20T15:38:34.978Z,3.10
2017-12-20T15:41:05.400Z,3.10
2017-12-20T15:43:35.524Z,3.20
2017-12-20T15:46:04.712Z,3.20
2017-12-20T15:48:34.436Z,3.40
2017-12-20T15:51:03.446Z,3.30
2017-12-20T15:53:33.884Z,3.30
2017-12-20T15:56:03.986Z,3.30
2017-12-20T15:58:33.195Z,3.40
2017-12-20T16:01:02.852Z,3.40
2017-12-20T16:03:32.229Z,3.40
2017-12-20T16:06:01.467Z,3.40
2017-12-20T16:08:33.494Z,3.40
2017-12-20T16:11:02.902Z,3.40
2017-12-20T16:13:32.079Z,3.40
2017-12-20T16:16:02.384Z,3.30
2017-12-20T16:18:31.569Z,3.30
2017-12-20T16:21:01.469Z,3.40
2017-12-20T16:23:31.932Z,3.30
2017-12-20T16:26:01.251Z,3.30
2017-12-20T16:28:31.991Z,3.20
2017-12-20T16:31:01.938Z,3.20
2017-12-20T16:33:31.447Z,3.20
2017-12-20T16:36:01.250Z,3.20
2017-12-20T16:38:31.025Z,3.20
2017-12-20T16:41:00.609Z,3.20
2017-12-20T16:43:30.685Z,3.30
2017-12-20T16:45:59.811Z,3.30
2017-12-20T16:48:28.592Z,3.40
2017-12-20T16:50:57.319Z,3.40
2017-12-20T16:53:37.598Z,3.40
2017-12-20T16:56:06.293Z,3.40
2017-12-20T16:58:35.691Z,3.30
2017-12-20T17:01:05.399Z,3.30
2017-12-20T17:03:34.980Z,3.40
2017-12-20T17:06:08.299Z,3.40
2017-12-20T17:08:37.434Z,3.40
2017-12-20T17:11:07.568Z,3.40
2017-12-20T17:13:37.628Z,3.40
2017-12-20T17:16:06.734Z,3.30
2017-12-20T17:18:36.388Z,3.30
2017-12-20T17:21:05.985Z,3.20
2017-12-20T17:23:35.667Z,3.10
2017-12-20T17:26:05.626Z,3.00
2017-12-20T17:28:35.476Z,3.00
2017-12-20T17:31:06.621Z,3.00
2017-12-20T17:33:36.395Z,3.00
2017-12-20T17:36:06.676Z,3.10
2017-12-20T17:38:36.453Z,3.10
2017-12-20T17:41:06.306Z,3.10
2017-12-20T17:43:35.825Z,3.20
2017-12-20T17:46:06.108Z,3.20
2017-12-20T17:48:35.842Z,3.20
2017-12-20T17:51:05.466Z,3.20
2017-12-20T17:53:35.629Z,3.20
2017-12-20T17:56:05.536Z,3.20
2017-12-20T17:58:36.147Z,3.20
2017-12-20T18:01:06.335Z,3.20
2017-12-20T18:03:35.546Z,3.20
2017-12-20T18:06:05.941Z,3.20
2017-12-20T18:08:36.628Z,3.10
2017-12-20T18:11:06.624Z,3.20
2017-12-20T18:13:36.415Z,3.10
2017-12-20T18:16:06.587Z,3.20
2017-12-20T18:18:36.337Z,3.10
2017-12-20T18:21:05.433Z,3.10
2017-12-20T18:23:34.336Z,3.10
2017-12-20T18:26:03.324Z,3.00
2017-12-20T18:28:33.120Z,3.00
2017-12-20T18:31:02.223Z,3.00
2017-12-20T18:33:32.578Z,3.10
2017-12-20T18:36:01.719Z,3.10
2017-12-20T18:38:35.583Z,3.10
2017-12-20T18:41:04.042Z,3.20
2017-12-20T18:43:32.907Z,3.20
2017-12-20T18:46:02.048Z,3.30
2017-12-20T18:48:30.994Z,3.40
2017-12-20T18:51:01.534Z,3.30
2017-12-20T18:53:31.245Z,3.30
2017-12-20T18:56:00.851Z,3.30
2017-12-20T18:58:29.428Z,3.30
2017-12-20T19:00:57.963Z,3.30
2017-12-20T19:03:26.511Z,3.20
2017-12-20T19:05:55.566Z,3.10
2017-12-20T19:08:23.910Z,3.10
2017-12-20T19:10:52.282Z,3.00
2017-12-20T19:13:21.344Z,2.90
2017-12-20T19:15:49.680Z,2.90
2017-12-20T19:18:18.751Z,3.00
2017-12-20T19:20:47.091Z,3.00
2017-12-20T19:23:15.375Z,3.00
2017-12-20T19:25:44.434Z,3.00
2017-12-20T19:28:12.806Z,3.00
2017-12-20T19:30:41.126Z,3.00
2017-12-20T19:33:09.544Z,3.00
2017-12-20T19:35:38.073Z,3.10
2017-12-20T19:38:06.418Z,3.20
2017-12-20T19:40:34.821Z,3.30
2017-12-20T19:43:03.990Z,3.30
2017-12-20T19:45:32.456Z,3.30
2017-12-20T19:48:01.029Z,3.30
2017-12-20T19:50:30.208Z,3.30
2017-12-20T19:52:58.708Z,3.30
2017-12-20T19:55:27.146Z,3.30
2017-12-20T19:57:56.257Z,3.30
2017-12-20T20:00:25.355Z,3.30
2017-12-20T20:02:54.412Z,3.30
2017-12-20T20:05:22.707Z,3.30
2017-12-20T20:07:51.018Z,3.30
2017-12-20T20:10:19.298Z,3.30
2017-12-20T20:12:47.643Z,3.30
2017-12-20T20:15:15.941Z,3.30
2017-12-20T20:17:44.782Z,3.30
2017-12-20T20:20:13.418Z,3.30
2017-12-20T20:22:42.696Z,3.30
2017-12-20T20:25:12.006Z,3.30
2017-12-20T20:27:40.548Z,3.20
2017-12-20T20:30:08.967Z,3.20
2017-12-20T20:32:38.172Z,3.20
2017-12-20T20:35:06.613Z,3.20
2017-12-20T20:37:35.145Z,3.20
2017-12-20T20:40:04.385Z,3.10
2017-12-20T20:42:32.844Z,3.10
2017-12-20T20:45:01.368Z,3.10
2017-12-20T20:47:30.616Z,3.20
2017-12-20T20:49:59.227Z,3.20
2017-12-20T20:52:27.655Z,3.20
2017-12-20T20:54:56.678Z,3.20
2017-12-20T20:57:25.095Z,3.10
2017-12-20T20:59:53.511Z,3.10
2017-12-20T21:02:21.940Z,3.20
2017-12-20T21:04:50.235Z,3.20
2017-12-20T21:07:18.519Z,3.10
2017-12-20T21:09:46.798Z,3.00
2017-12-20T21:12:15.189Z,3.20
2017-12-20T21:14:43.521Z,3.20
2017-12-20T21:17:11.924Z,3.20
2017-12-20T21:19:40.234Z,3.20
2017-12-20T21:22:09.424Z,3.20
2017-12-20T21:24:38.839Z,3.30
2017-12-20T21:27:07.551Z,3.30
2017-12-20T21:29:36.132Z,3.30
2017-12-20T21:32:05.504Z,3.30
2017-12-20T21:34:34.313Z,3.30
2017-12-20T21:37:03.658Z,3.30
2017-12-20T21:39:32.407Z,3.30
2017-12-20T21:42:01.428Z,3.20
2017-12-20T21:44:30.369Z,3.30
2017-12-20T21:46:58.929Z,3.20
2017-12-20T21:49:27.579Z,3.20
2017-12-20T21:51:55.906Z,3.20
2017-12-20T21:54:24.962Z,3.20
2017-12-20T21:56:53.285Z,3.20
2017-12-20T21:59:21.575Z,3.20
2017-12-20T22:01:49.874Z,3.10
2017-12-20T22:04:18.207Z,3.20
2017-12-20T22:06:46.497Z,3.20
2017-12-20T22:09:14.814Z,3.20
2017-12-20T22:11:43.101Z,3.20
2017-12-20T22:14:11.727Z,3.10
2017-12-20T22:16:43.205Z,3.10
2017-12-20T22:19:12.709Z,3.10
2017-12-20T22:21:42.008Z,3.10
2017-12-20T22:24:11.671Z,3.10
2017-12-20T22:26:40.452Z,3.10
2017-12-20T22:29:09.095Z,3.10
2017-12-20T22:31:37.642Z,3.10
2017-12-20T22:34:07.000Z,3.10
2017-12-20T22:36:36.187Z,3.10
2017-12-20T22:39:05.576Z,3.10
2017-12-20T22:41:35.361Z,3.20
2017-12-20T22:44:05.320Z,3.20
2017-12-20T22:46:35.743Z,3.20
2017-12-20T22:49:05.820Z,3.20
2017-12-20T22:51:36.423Z,3.10
2017-12-20T22:54:07.107Z,3.00
2017-12-20T22:56:36.763Z,3.00
2017-12-20T22:59:06.581Z,3.00
2017-12-20T23:01:35.134Z,3.10
2017-12-20T23:04:04.443Z,3.10
2017-12-20T23:06:34.188Z,3.10
2017-12-20T23:09:04.264Z,3.10
2017-12-20T23:11:34.251Z,3.10
2017-12-20T23:14:03.025Z,3.20
2017-12-20T23:16:32.694Z,3.20
2017-12-20T23:19:03.242Z,3.30
2017-12-20T23:21:33.770Z,3.20
2017-12-20T23:24:03.761Z,3.30
2017-12-20T23:26:34.415Z,3.30
2017-12-20T23:29:04.016Z,3.30
2017-12-20T23:31:34.835Z,3.30
2017-12-20T23:34:04.924Z,3.30
2017-12-20T23:36:34.050Z,3.30
2017-12-20T23:39:03.397Z,3.20
2017-12-20T23:41:32.162Z,3.20
2017-12-20T23:44:01.132Z,3.20
2017-12-20T23:46:30.058Z,3.20
2017-12-20T23:48:59.152Z,3.30
2017-12-20T23:51:27.656Z,3.30
2017-12-20T23:53:56.086Z,3.30
2017-12-20T23:56:24.443Z,3.40
2017-12-20T23:58:52.804Z,3.40
